sensor_id;sensor_type;location;lat;lon;timestamp;P1;durP1;ratioP1;P2;durP2;ratioP2
75645;SDS011;64237;52.438;13.240;2023-10-09T00:02:05;2.53;;;1.20;;
75645;SDS011;64237;52.438;13.240;2023-10-09T00:04:34;5.15;;;1.30;;
75645;SDS011;64237;52.438;13.240;2023-10-09T00:07:02;3.35;;;1.23;;
75645;SDS011;64237;52.438;13.240;2023-10-09T00:09:36;5.70;;;1.42;;
75645;SDS011;64237;52.438;13.240;2023-10-09T00:12:14;5.57;;;1.60;;
75645;SDS011;64237;52.438;13.240;2023-10-09T00:14:47;3.25;;;1.70;;
75645;SDS011;64237;52.438;13.240;2023-10-09T00:17:20;2.85;;;1.30;;
75645;SDS011;64237;52.438;13.240;2023-10-09T00:19:49;4.72;;;1.42;;
75645;SDS011;64237;52.438;13.240;2023-10-09T00:22:16;5.03;;;1.30;;
75645;SDS011;64237;52.438;13.240;2023-10-09T00:24:54;4.53;;;1.45;;
75645;SDS011;64237;52.438;13.240;2023-10-09T00:27:41;3.40;;;1.15;;
75645;SDS011;64237;52.438;13.240;2023-10-09T00:30:11;3.08;;;1.35;;
75645;SDS011;64237;52.438;13.240;2023-10-09T00:32:49;5.53;;;1.45;;
75645;SDS011;64237;52.438;13.240;2023-10-09T00:35:17;4.80;;;1.58;;
75645;SDS011;64237;52.438;13.240;2023-10-09T00:38:05;4.75;;;1.52;;
75645;SDS011;64237;52.438;13.240;2023-10-09T00:40:46;5.07;;;1.50;;
75645;SDS011;64237;52.438;13.240;2023-10-09T00:43:43;3.03;;;1.33;;
75645;SDS011;64237;52.438;13.240;2023-10-09T00:46:11;4.30;;;1.60;;
75645;SDS011;64237;52.438;13.240;2023-10-09T00:48:49;5.75;;;2.00;;
75645;SDS011;64237;52.438;13.240;2023-10-09T00:51:22;5.32;;;1.58;;
75645;SDS011;64237;52.438;13.240;2023-10-09T00:53:50;5.18;;;1.90;;
75645;SDS011;64237;52.438;13.240;2023-10-09T00:56:18;5.38;;;1.67;;
75645;SDS011;64237;52.438;13.240;2023-10-09T00:58:46;3.72;;;1.65;;
75645;SDS011;64237;52.438;13.240;2023-10-09T01:01:14;5.18;;;1.70;;
75645;SDS011;64237;52.438;13.240;2023-10-09T01:03:45;6.00;;;1.60;;
75645;SDS011;64237;52.438;13.240;2023-10-09T01:06:10;5.25;;;1.60;;
75645;SDS011;64237;52.438;13.240;2023-10-09T01:08:37;6.30;;;1.70;;
75645;SDS011;64237;52.438;13.240;2023-10-09T01:11:04;6.68;;;2.42;;
75645;SDS011;64237;52.438;13.240;2023-10-09T01:13:43;9.23;;;2.28;;
75645;SDS011;64237;52.438;13.240;2023-10-09T01:16:24;6.38;;;1.80;;
75645;SDS011;64237;52.438;13.240;2023-10-09T01:18:50;5.05;;;1.85;;
75645;SDS011;64237;52.438;13.240;2023-10-09T01:21:18;5.32;;;2.10;;
75645;SDS011;64237;52.438;13.240;2023-10-09T01:23:54;6.32;;;1.90;;
75645;SDS011;64237;52.438;13.240;2023-10-09T01:26:43;5.93;;;1.70;;
75645;SDS011;64237;52.438;13.240;2023-10-09T01:29:18;6.53;;;2.00;;
75645;SDS011;64237;52.438;13.240;2023-10-09T01:31:53;6.93;;;1.73;;
75645;SDS011;64237;52.438;13.240;2023-10-09T01:34:32;3.95;;;1.60;;
75645;SDS011;64237;52.438;13.240;2023-10-09T01:37:28;6.03;;;2.22;;
75645;SDS011;64237;52.438;13.240;2023-10-09T01:39:55;4.90;;;1.92;;
75645;SDS011;64237;52.438;13.240;2023-10-09T01:42:40;6.28;;;1.80;;
75645;SDS011;64237;52.438;13.240;2023-10-09T01:45:13;3.53;;;1.60;;
75645;SDS011;64237;52.438;13.240;2023-10-09T01:47:47;5.60;;;1.98;;
75645;SDS011;64237;52.438;13.240;2023-10-09T01:50:28;4.20;;;1.77;;
75645;SDS011;64237;52.438;13.240;2023-10-09T01:52:56;5.20;;;1.88;;
75645;SDS011;64237;52.438;13.240;2023-10-09T01:55:24;6.25;;;1.88;;
75645;SDS011;64237;52.438;13.240;2023-10-09T01:57:56;5.05;;;1.90;;
75645;SDS011;64237;52.438;13.240;2023-10-09T02:00:31;5.15;;;1.45;;
75645;SDS011;64237;52.438;13.240;2023-10-09T02:03:00;5.20;;;1.65;;
75645;SDS011;64237;52.438;13.240;2023-10-09T02:05:30;4.15;;;2.00;;
75645;SDS011;64237;52.438;13.240;2023-10-09T02:07:58;5.13;;;1.67;;
75645;SDS011;64237;52.438;13.240;2023-10-09T02:10:30;5.07;;;1.75;;
75645;SDS011;64237;52.438;13.240;2023-10-09T02:12:59;7.93;;;1.70;;
75645;SDS011;64237;52.438;13.240;2023-10-09T02:15:42;5.55;;;1.85;;
75645;SDS011;64237;52.438;13.240;2023-10-09T02:18:23;6.22;;;1.80;;
75645;SDS011;64237;52.438;13.240;2023-10-09T02:23:43;7.00;;;1.70;;
75645;SDS011;64237;52.438;13.240;2023-10-09T02:26:17;6.70;;;2.03;;
75645;SDS011;64237;52.438;13.240;2023-10-09T02:28:53;4.30;;;1.70;;
75645;SDS011;64237;52.438;13.240;2023-10-09T02:31:34;5.93;;;1.98;;
75645;SDS011;64237;52.438;13.240;2023-10-09T02:34:16;3.95;;;1.88;;
75645;SDS011;64237;52.438;13.240;2023-10-09T02:36:45;7.07;;;1.98;;
75645;SDS011;64237;52.438;13.240;2023-10-09T02:39:28;7.55;;;2.05;;
75645;SDS011;64237;52.438;13.240;2023-10-09T02:42:01;7.13;;;2.08;;
75645;SDS011;64237;52.438;13.240;2023-10-09T02:44:29;5.50;;;2.13;;
75645;SDS011;64237;52.438;13.240;2023-10-09T02:46:57;5.95;;;2.20;;
75645;SDS011;64237;52.438;13.240;2023-10-09T02:49:24;4.90;;;1.88;;
75645;SDS011;64237;52.438;13.240;2023-10-09T02:51:51;4.95;;;2.20;;
75645;SDS011;64237;52.438;13.240;2023-10-09T02:54:22;7.22;;;2.38;;
75645;SDS011;64237;52.438;13.240;2023-10-09T02:56:51;5.82;;;2.08;;
75645;SDS011;64237;52.438;13.240;2023-10-09T02:59:32;5.25;;;2.05;;
75645;SDS011;64237;52.438;13.240;2023-10-09T03:01:57;6.55;;;2.20;;
75645;SDS011;64237;52.438;13.240;2023-10-09T03:04:25;5.05;;;2.17;;
75645;SDS011;64237;52.438;13.240;2023-10-09T03:06:58;5.18;;;2.30;;
75645;SDS011;64237;52.438;13.240;2023-10-09T03:09:24;8.70;;;2.60;;
75645;SDS011;64237;52.438;13.240;2023-10-09T03:11:56;5.97;;;2.45;;
75645;SDS011;64237;52.438;13.240;2023-10-09T03:14:40;5.65;;;2.25;;
75645;SDS011;64237;52.438;13.240;2023-10-09T03:17:12;7.03;;;2.28;;
75645;SDS011;64237;52.438;13.240;2023-10-09T03:19:43;5.15;;;2.13;;
75645;SDS011;64237;52.438;13.240;2023-10-09T03:22:08;7.55;;;2.55;;
75645;SDS011;64237;52.438;13.240;2023-10-09T03:24:35;4.53;;;2.15;;
75645;SDS011;64237;52.438;13.240;2023-10-09T03:27:10;7.63;;;2.28;;
75645;SDS011;64237;52.438;13.240;2023-10-09T03:29:36;7.18;;;2.20;;
75645;SDS011;64237;52.438;13.240;2023-10-09T03:32:08;7.25;;;2.55;;
75645;SDS011;64237;52.438;13.240;2023-10-09T03:34:37;6.15;;;2.47;;
75645;SDS011;64237;52.438;13.240;2023-10-09T03:37:15;6.07;;;2.33;;
75645;SDS011;64237;52.438;13.240;2023-10-09T03:39:53;5.85;;;2.33;;
75645;SDS011;64237;52.438;13.240;2023-10-09T03:42:20;7.85;;;2.47;;
75645;SDS011;64237;52.438;13.240;2023-10-09T03:44:46;6.93;;;2.60;;
75645;SDS011;64237;52.438;13.240;2023-10-09T03:47:17;8.70;;;2.70;;
75645;SDS011;64237;52.438;13.240;2023-10-09T03:50:05;7.25;;;2.58;;
75645;SDS011;64237;52.438;13.240;2023-10-09T03:52:48;6.40;;;2.67;;
75645;SDS011;64237;52.438;13.240;2023-10-09T03:55:15;7.03;;;2.53;;
75645;SDS011;64237;52.438;13.240;2023-10-09T03:57:40;7.93;;;2.53;;
75645;SDS011;64237;52.438;13.240;2023-10-09T04:00:16;9.20;;;2.58;;
75645;SDS011;64237;52.438;13.240;2023-10-09T04:02:42;7.63;;;2.67;;
75645;SDS011;64237;52.438;13.240;2023-10-09T04:05:16;6.00;;;2.47;;
75645;SDS011;64237;52.438;13.240;2023-10-09T04:07:48;7.85;;;2.53;;
75645;SDS011;64237;52.438;13.240;2023-10-09T04:10:14;6.63;;;2.20;;
75645;SDS011;64237;52.438;13.240;2023-10-09T04:13:01;6.28;;;2.28;;
75645;SDS011;64237;52.438;13.240;2023-10-09T04:15:30;7.47;;;2.50;;
75645;SDS011;64237;52.438;13.240;2023-10-09T04:18:12;6.63;;;2.38;;
75645;SDS011;64237;52.438;13.240;2023-10-09T04:20:40;4.97;;;2.03;;
75645;SDS011;64237;52.438;13.240;2023-10-09T04:23:15;9.15;;;2.63;;
75645;SDS011;64237;52.438;13.240;2023-10-09T04:25:44;7.00;;;2.70;;
75645;SDS011;64237;52.438;13.240;2023-10-09T04:28:15;7.15;;;2.40;;
75645;SDS011;64237;52.438;13.240;2023-10-09T04:30:49;8.93;;;2.80;;
75645;SDS011;64237;52.438;13.240;2023-10-09T04:36:08;8.70;;;2.63;;
75645;SDS011;64237;52.438;13.240;2023-10-09T04:39:06;6.07;;;2.75;;
75645;SDS011;64237;52.438;13.240;2023-10-09T04:41:47;8.52;;;3.35;;
75645;SDS011;64237;52.438;13.240;2023-10-09T04:44:15;6.57;;;2.63;;
75645;SDS011;64237;52.438;13.240;2023-10-09T04:46:47;9.35;;;2.42;;
75645;SDS011;64237;52.438;13.240;2023-10-09T04:52:31;6.38;;;2.45;;
75645;SDS011;64237;52.438;13.240;2023-10-09T04:55:00;6.03;;;2.60;;
75645;SDS011;64237;52.438;13.240;2023-10-09T04:58:09;6.50;;;2.40;;
75645;SDS011;64237;52.438;13.240;2023-10-09T05:00:41;8.43;;;2.47;;
75645;SDS011;64237;52.438;13.240;2023-10-09T05:03:06;7.50;;;2.58;;
75645;SDS011;64237;52.438;13.240;2023-10-09T05:08:19;8.77;;;3.78;;
75645;SDS011;64237;52.438;13.240;2023-10-09T05:10:57;6.88;;;2.53;;
75645;SDS011;64237;52.438;13.240;2023-10-09T05:13:38;6.85;;;2.78;;
75645;SDS011;64237;52.438;13.240;2023-10-09T05:16:08;7.03;;;2.58;;
75645;SDS011;64237;52.438;13.240;2023-10-09T05:18:55;7.10;;;2.60;;
75645;SDS011;64237;52.438;13.240;2023-10-09T05:21:24;7.60;;;2.78;;
75645;SDS011;64237;52.438;13.240;2023-10-09T05:24:08;7.05;;;2.60;;
75645;SDS011;64237;52.438;13.240;2023-10-09T05:26:41;8.18;;;2.60;;
75645;SDS011;64237;52.438;13.240;2023-10-09T05:32:01;8.85;;;3.10;;
75645;SDS011;64237;52.438;13.240;2023-10-09T05:34:48;8.27;;;3.05;;
75645;SDS011;64237;52.438;13.240;2023-10-09T05:37:33;5.35;;;2.13;;
75645;SDS011;64237;52.438;13.240;2023-10-09T05:40:05;7.78;;;2.95;;
75645;SDS011;64237;52.438;13.240;2023-10-09T05:42:49;7.90;;;2.80;;
75645;SDS011;64237;52.438;13.240;2023-10-09T05:45:24;6.45;;;2.30;;
75645;SDS011;64237;52.438;13.240;2023-10-09T05:48:09;7.38;;;2.55;;
75645;SDS011;64237;52.438;13.240;2023-10-09T05:50:38;6.70;;;2.65;;
75645;SDS011;64237;52.438;13.240;2023-10-09T05:53:24;8.68;;;3.30;;
75645;SDS011;64237;52.438;13.240;2023-10-09T05:56:08;6.75;;;2.90;;
75645;SDS011;64237;52.438;13.240;2023-10-09T05:58:55;7.13;;;2.83;;
75645;SDS011;64237;52.438;13.240;2023-10-09T06:01:29;7.80;;;3.10;;
75645;SDS011;64237;52.438;13.240;2023-10-09T06:04:13;6.32;;;2.92;;
75645;SDS011;64237;52.438;13.240;2023-10-09T06:06:48;8.00;;;3.08;;
75645;SDS011;64237;52.438;13.240;2023-10-09T06:09:28;7.47;;;3.03;;
75645;SDS011;64237;52.438;13.240;2023-10-09T06:12:17;10.10;;;3.10;;
75645;SDS011;64237;52.438;13.240;2023-10-09T06:15:03;7.50;;;3.35;;
75645;SDS011;64237;52.438;13.240;2023-10-09T06:17:55;7.85;;;3.03;;
75645;SDS011;64237;52.438;13.240;2023-10-09T06:20:40;10.18;;;3.45;;
75645;SDS011;64237;52.438;13.240;2023-10-09T06:23:25;7.38;;;2.70;;
75645;SDS011;64237;52.438;13.240;2023-10-09T06:26:10;9.30;;;3.13;;
75645;SDS011;64237;52.438;13.240;2023-10-09T06:28:48;11.27;;;3.17;;
75645;SDS011;64237;52.438;13.240;2023-10-09T06:31:33;8.00;;;2.63;;
75645;SDS011;64237;52.438;13.240;2023-10-09T06:34:19;8.93;;;2.90;;
75645;SDS011;64237;52.438;13.240;2023-10-09T06:36:45;9.30;;;3.00;;
75645;SDS011;64237;52.438;13.240;2023-10-09T06:39:18;6.80;;;2.90;;
75645;SDS011;64237;52.438;13.240;2023-10-09T06:42:02;7.30;;;2.80;;
75645;SDS011;64237;52.438;13.240;2023-10-09T06:45:06;6.50;;;2.65;;
75645;SDS011;64237;52.438;13.240;2023-10-09T06:47:42;6.38;;;2.67;;
75645;SDS011;64237;52.438;13.240;2023-10-09T06:53:27;6.93;;;2.80;;
75645;SDS011;64237;52.438;13.240;2023-10-09T06:56:11;7.72;;;2.90;;
75645;SDS011;64237;52.438;13.240;2023-10-09T06:58:51;6.60;;;2.50;;
75645;SDS011;64237;52.438;13.240;2023-10-09T07:01:20;6.55;;;3.00;;
75645;SDS011;64237;52.438;13.240;2023-10-09T07:04:07;9.20;;;2.60;;
75645;SDS011;64237;52.438;13.240;2023-10-09T07:06:52;6.00;;;2.40;;
75645;SDS011;64237;52.438;13.240;2023-10-09T07:09:20;6.53;;;2.47;;
75645;SDS011;64237;52.438;13.240;2023-10-09T07:11:49;7.38;;;2.53;;
75645;SDS011;64237;52.438;13.240;2023-10-09T07:14:22;6.13;;;2.55;;
75645;SDS011;64237;52.438;13.240;2023-10-09T07:17:17;8.00;;;2.70;;
75645;SDS011;64237;52.438;13.240;2023-10-09T07:19:57;6.88;;;2.70;;
75645;SDS011;64237;52.438;13.240;2023-10-09T07:22:40;7.05;;;2.60;;
75645;SDS011;64237;52.438;13.240;2023-10-09T07:25:33;9.30;;;3.03;;
75645;SDS011;64237;52.438;13.240;2023-10-09T07:28:25;7.25;;;2.97;;
75645;SDS011;64237;52.438;13.240;2023-10-09T07:30:55;7.00;;;3.03;;
75645;SDS011;64237;52.438;13.240;2023-10-09T07:33:25;7.15;;;3.03;;
75645;SDS011;64237;52.438;13.240;2023-10-09T07:36:01;8.93;;;3.13;;
75645;SDS011;64237;52.438;13.240;2023-10-09T07:38:35;6.93;;;2.60;;
75645;SDS011;64237;52.438;13.240;2023-10-09T07:41:01;7.07;;;2.72;;
75645;SDS011;64237;52.438;13.240;2023-10-09T07:43:27;6.18;;;2.47;;
75645;SDS011;64237;52.438;13.240;2023-10-09T07:46:07;6.90;;;2.42;;
75645;SDS011;64237;52.438;13.240;2023-10-09T07:48:53;5.70;;;2.45;;
75645;SDS011;64237;52.438;13.240;2023-10-09T07:51:25;6.45;;;2.75;;
75645;SDS011;64237;52.438;13.240;2023-10-09T07:53:57;6.00;;;2.53;;
75645;SDS011;64237;52.438;13.240;2023-10-09T07:56:42;6.35;;;2.70;;
75645;SDS011;64237;52.438;13.240;2023-10-09T07:59:10;7.88;;;2.80;;
75645;SDS011;64237;52.438;13.240;2023-10-09T08:01:40;8.27;;;2.85;;
75645;SDS011;64237;52.438;13.240;2023-10-09T08:04:27;7.05;;;2.63;;
75645;SDS011;64237;52.438;13.240;2023-10-09T08:07:24;7.38;;;2.80;;
75645;SDS011;64237;52.438;13.240;2023-10-09T08:10:07;6.05;;;2.60;;
75645;SDS011;64237;52.438;13.240;2023-10-09T08:12:39;7.82;;;2.67;;
75645;SDS011;64237;52.438;13.240;2023-10-09T08:15:25;6.93;;;2.85;;
75645;SDS011;64237;52.438;13.240;2023-10-09T08:18:09;7.63;;;2.95;;
75645;SDS011;64237;52.438;13.240;2023-10-09T08:20:35;6.63;;;3.00;;
75645;SDS011;64237;52.438;13.240;2023-10-09T08:23:21;6.88;;;2.90;;
75645;SDS011;64237;52.438;13.240;2023-10-09T08:26:15;6.43;;;2.72;;
75645;SDS011;64237;52.438;13.240;2023-10-09T08:28:54;7.80;;;2.88;;
75645;SDS011;64237;52.438;13.240;2023-10-09T08:31:43;9.23;;;2.88;;
75645;SDS011;64237;52.438;13.240;2023-10-09T08:34:20;6.38;;;2.22;;
75645;SDS011;64237;52.438;13.240;2023-10-09T08:37:16;7.28;;;2.53;;
75645;SDS011;64237;52.438;13.240;2023-10-09T08:42:14;5.68;;;2.25;;
75645;SDS011;64237;52.438;13.240;2023-10-09T08:44:40;5.93;;;2.50;;
75645;SDS011;64237;52.438;13.240;2023-10-09T08:47:15;6.72;;;2.90;;
75645;SDS011;64237;52.438;13.240;2023-10-09T08:49:40;7.15;;;2.90;;
75645;SDS011;64237;52.438;13.240;2023-10-09T08:52:16;7.95;;;2.67;;
75645;SDS011;64237;52.438;13.240;2023-10-09T08:54:49;6.97;;;2.78;;
75645;SDS011;64237;52.438;13.240;2023-10-09T08:57:20;7.35;;;2.45;;
75645;SDS011;64237;52.438;13.240;2023-10-09T08:59:56;6.63;;;2.60;;
75645;SDS011;64237;52.438;13.240;2023-10-09T09:02:21;6.40;;;2.30;;
75645;SDS011;64237;52.438;13.240;2023-10-09T09:04:50;8.75;;;2.65;;
75645;SDS011;64237;52.438;13.240;2023-10-09T09:07:26;7.22;;;2.53;;
75645;SDS011;64237;52.438;13.240;2023-10-09T09:09:54;7.30;;;2.42;;
75645;SDS011;64237;52.438;13.240;2023-10-09T09:12:42;5.75;;;2.22;;
75645;SDS011;64237;52.438;13.240;2023-10-09T09:15:15;7.35;;;2.40;;
75645;SDS011;64237;52.438;13.240;2023-10-09T09:17:47;8.35;;;2.03;;
75645;SDS011;64237;52.438;13.240;2023-10-09T09:20:22;7.13;;;2.25;;
75645;SDS011;64237;52.438;13.240;2023-10-09T09:23:09;6.00;;;2.40;;
75645;SDS011;64237;52.438;13.240;2023-10-09T09:25:49;5.47;;;2.22;;
75645;SDS011;64237;52.438;13.240;2023-10-09T09:28:27;6.43;;;2.08;;
75645;SDS011;64237;52.438;13.240;2023-10-09T09:31:07;6.88;;;2.30;;
75645;SDS011;64237;52.438;13.240;2023-10-09T09:33:42;7.20;;;2.83;;
75645;SDS011;64237;52.438;13.240;2023-10-09T09:36:08;5.15;;;2.13;;
75645;SDS011;64237;52.438;13.240;2023-10-09T09:38:37;7.20;;;2.47;;
75645;SDS011;64237;52.438;13.240;2023-10-09T09:41:15;5.65;;;2.70;;
75645;SDS011;64237;52.438;13.240;2023-10-09T09:44:00;7.30;;;2.53;;
75645;SDS011;64237;52.438;13.240;2023-10-09T09:46:32;7.20;;;2.60;;
75645;SDS011;64237;52.438;13.240;2023-10-09T09:49:12;7.50;;;3.00;;
75645;SDS011;64237;52.438;13.240;2023-10-09T09:51:52;7.63;;;2.90;;
75645;SDS011;64237;52.438;13.240;2023-10-09T09:54:18;6.82;;;3.25;;
75645;SDS011;64237;52.438;13.240;2023-10-09T09:56:47;6.22;;;2.63;;
75645;SDS011;64237;52.438;13.240;2023-10-09T09:59:16;6.88;;;3.08;;
75645;SDS011;64237;52.438;13.240;2023-10-09T10:01:49;6.25;;;2.88;;
75645;SDS011;64237;52.438;13.240;2023-10-09T10:04:39;8.05;;;3.25;;
75645;SDS011;64237;52.438;13.240;2023-10-09T10:07:07;6.65;;;2.92;;
75645;SDS011;64237;52.438;13.240;2023-10-09T10:09:42;7.65;;;3.75;;
75645;SDS011;64237;52.438;13.240;2023-10-09T10:12:10;9.20;;;3.75;;
75645;SDS011;64237;52.438;13.240;2023-10-09T10:14:55;8.20;;;3.60;;
75645;SDS011;64237;52.438;13.240;2023-10-09T10:20:28;8.48;;;3.47;;
75645;SDS011;64237;52.438;13.240;2023-10-09T10:25:44;9.13;;;4.05;;
75645;SDS011;64237;52.438;13.240;2023-10-09T10:28:22;10.70;;;3.80;;
75645;SDS011;64237;52.438;13.240;2023-10-09T10:31:07;8.82;;;3.88;;
75645;SDS011;64237;52.438;13.240;2023-10-09T10:36:26;10.20;;;3.90;;
75645;SDS011;64237;52.438;13.240;2023-10-09T10:39:06;9.32;;;4.05;;
75645;SDS011;64237;52.438;13.240;2023-10-09T10:42:09;7.53;;;3.97;;
75645;SDS011;64237;52.438;13.240;2023-10-09T10:44:55;7.72;;;3.90;;
75645;SDS011;64237;52.438;13.240;2023-10-09T10:47:25;9.35;;;4.43;;
75645;SDS011;64237;52.438;13.240;2023-10-09T10:49:57;7.70;;;3.80;;
75645;SDS011;64237;52.438;13.240;2023-10-09T10:52:23;10.02;;;3.97;;
75645;SDS011;64237;52.438;13.240;2023-10-09T11:00:41;9.10;;;4.10;;
75645;SDS011;64237;52.438;13.240;2023-10-09T11:03:21;10.23;;;4.53;;
75645;SDS011;64237;52.438;13.240;2023-10-09T11:06:01;10.25;;;4.57;;
75645;SDS011;64237;52.438;13.240;2023-10-09T11:08:49;10.00;;;4.07;;
75645;SDS011;64237;52.438;13.240;2023-10-09T11:11:25;10.55;;;4.35;;
75645;SDS011;64237;52.438;13.240;2023-10-09T11:14:07;10.05;;;4.22;;
75645;SDS011;64237;52.438;13.240;2023-10-09T11:19:29;8.60;;;4.20;;
75645;SDS011;64237;52.438;13.240;2023-10-09T11:21:58;8.23;;;4.10;;
75645;SDS011;64237;52.438;13.240;2023-10-09T11:24:30;9.63;;;4.25;;
75645;SDS011;64237;52.438;13.240;2023-10-09T11:27:08;7.18;;;3.28;;
75645;SDS011;64237;52.438;13.240;2023-10-09T11:29:49;8.23;;;3.95;;
75645;SDS011;64237;52.438;13.240;2023-10-09T11:32:21;8.00;;;3.50;;
75645;SDS011;64237;52.438;13.240;2023-10-09T11:34:51;5.68;;;2.85;;
75645;SDS011;64237;52.438;13.240;2023-10-09T11:37:38;9.45;;;3.50;;
75645;SDS011;64237;52.438;13.240;2023-10-09T11:40:27;7.43;;;3.03;;
75645;SDS011;64237;52.438;13.240;2023-10-09T11:43:19;7.50;;;2.97;;
75645;SDS011;64237;52.438;13.240;2023-10-09T11:46:11;8.02;;;2.90;;
75645;SDS011;64237;52.438;13.240;2023-10-09T11:48:36;7.95;;;3.17;;
75645;SDS011;64237;52.438;13.240;2023-10-09T11:51:25;6.75;;;3.05;;
75645;SDS011;64237;52.438;13.240;2023-10-09T11:53:53;6.57;;;3.05;;
75645;SDS011;64237;52.438;13.240;2023-10-09T11:59:12;7.88;;;2.92;;
75645;SDS011;64237;52.438;13.240;2023-10-09T12:01:53;5.60;;;2.55;;
75645;SDS011;64237;52.438;13.240;2023-10-09T12:04:23;7.97;;;2.97;;
75645;SDS011;64237;52.438;13.240;2023-10-09T12:06:55;6.68;;;3.03;;
75645;SDS011;64237;52.438;13.240;2023-10-09T12:09:31;6.65;;;2.92;;
75645;SDS011;64237;52.438;13.240;2023-10-09T12:11:59;7.95;;;3.22;;
75645;SDS011;64237;52.438;13.240;2023-10-09T12:14:50;5.97;;;2.83;;
75645;SDS011;64237;52.438;13.240;2023-10-09T12:17:18;7.97;;;3.67;;
75645;SDS011;64237;52.438;13.240;2023-10-09T12:19:43;7.63;;;3.80;;
75645;SDS011;64237;52.438;13.240;2023-10-09T12:22:15;9.70;;;4.47;;
75645;SDS011;64237;52.438;13.240;2023-10-09T12:24:41;8.63;;;3.58;;
75645;SDS011;64237;52.438;13.240;2023-10-09T12:27:11;7.95;;;4.10;;
75645;SDS011;64237;52.438;13.240;2023-10-09T12:29:48;9.52;;;3.78;;
75645;SDS011;64237;52.438;13.240;2023-10-09T12:32:14;8.30;;;4.13;;
75645;SDS011;64237;52.438;13.240;2023-10-09T12:34:44;8.27;;;4.30;;
75645;SDS011;64237;52.438;13.240;2023-10-09T12:37:13;7.72;;;3.97;;
75645;SDS011;64237;52.438;13.240;2023-10-09T12:39:42;7.57;;;4.47;;
75645;SDS011;64237;52.438;13.240;2023-10-09T12:42:08;9.10;;;3.88;;
75645;SDS011;64237;52.438;13.240;2023-10-09T12:44:36;8.70;;;4.82;;
75645;SDS011;64237;52.438;13.240;2023-10-09T12:47:04;8.15;;;4.32;;
75645;SDS011;64237;52.438;13.240;2023-10-09T12:49:40;8.05;;;4.32;;
75645;SDS011;64237;52.438;13.240;2023-10-09T12:52:11;8.82;;;4.18;;
75645;SDS011;64237;52.438;13.240;2023-10-09T12:54:42;8.25;;;4.07;;
75645;SDS011;64237;52.438;13.240;2023-10-09T12:57:08;8.02;;;3.80;;
75645;SDS011;64237;52.438;13.240;2023-10-09T12:59:38;6.32;;;3.58;;
75645;SDS011;64237;52.438;13.240;2023-10-09T13:02:23;7.97;;;3.85;;
75645;SDS011;64237;52.438;13.240;2023-10-09T13:05:03;10.40;;;4.47;;
75645;SDS011;64237;52.438;13.240;2023-10-09T13:07:30;10.15;;;4.25;;
75645;SDS011;64237;52.438;13.240;2023-10-09T13:09:55;7.85;;;4.00;;
75645;SDS011;64237;52.438;13.240;2023-10-09T13:12:42;8.95;;;5.13;;
75645;SDS011;64237;52.438;13.240;2023-10-09T13:15:10;10.98;;;4.63;;
75645;SDS011;64237;52.438;13.240;2023-10-09T13:17:36;12.15;;;5.43;;
75645;SDS011;64237;52.438;13.240;2023-10-09T13:20:03;10.13;;;5.20;;
75645;SDS011;64237;52.438;13.240;2023-10-09T13:22:44;9.63;;;5.07;;
75645;SDS011;64237;52.438;13.240;2023-10-09T13:25:12;11.13;;;5.80;;
75645;SDS011;64237;52.438;13.240;2023-10-09T13:27:44;9.00;;;5.25;;
75645;SDS011;64237;52.438;13.240;2023-10-09T13:30:16;9.10;;;5.15;;
75645;SDS011;64237;52.438;13.240;2023-10-09T13:32:51;10.15;;;5.40;;
75645;SDS011;64237;52.438;13.240;2023-10-09T13:35:20;10.50;;;5.78;;
75645;SDS011;64237;52.438;13.240;2023-10-09T13:37:52;12.27;;;5.50;;
75645;SDS011;64237;52.438;13.240;2023-10-09T13:40:23;11.32;;;5.80;;
75645;SDS011;64237;52.438;13.240;2023-10-09T13:42:53;11.02;;;5.65;;
75645;SDS011;64237;52.438;13.240;2023-10-09T13:45:29;12.93;;;6.07;;
75645;SDS011;64237;52.438;13.240;2023-10-09T13:47:58;10.50;;;5.55;;
75645;SDS011;64237;52.438;13.240;2023-10-09T13:50:24;11.25;;;6.38;;
75645;SDS011;64237;52.438;13.240;2023-10-09T13:52:57;11.23;;;5.72;;
75645;SDS011;64237;52.438;13.240;2023-10-09T13:55:23;10.80;;;5.63;;
75645;SDS011;64237;52.438;13.240;2023-10-09T13:57:56;11.85;;;5.60;;
75645;SDS011;64237;52.438;13.240;2023-10-09T14:00:22;11.13;;;5.93;;
75645;SDS011;64237;52.438;13.240;2023-10-09T14:03:19;12.07;;;5.70;;
75645;SDS011;64237;52.438;13.240;2023-10-09T14:05:48;10.65;;;5.28;;
75645;SDS011;64237;52.438;13.240;2023-10-09T14:08:25;12.25;;;5.63;;
75645;SDS011;64237;52.438;13.240;2023-10-09T14:10:53;8.13;;;4.45;;
75645;SDS011;64237;52.438;13.240;2023-10-09T14:13:19;10.65;;;5.22;;
75645;SDS011;64237;52.438;13.240;2023-10-09T14:15:54;10.75;;;4.90;;
75645;SDS011;64237;52.438;13.240;2023-10-09T14:18:20;8.10;;;4.05;;
75645;SDS011;64237;52.438;13.240;2023-10-09T14:20:46;8.95;;;4.28;;
75645;SDS011;64237;52.438;13.240;2023-10-09T14:23:11;8.95;;;4.43;;
75645;SDS011;64237;52.438;13.240;2023-10-09T14:25:45;8.55;;;4.00;;
75645;SDS011;64237;52.438;13.240;2023-10-09T14:28:14;9.00;;;3.97;;
75645;SDS011;64237;52.438;13.240;2023-10-09T14:30:43;8.18;;;4.13;;
75645;SDS011;64237;52.438;13.240;2023-10-09T14:33:22;8.50;;;4.10;;
75645;SDS011;64237;52.438;13.240;2023-10-09T14:35:55;9.35;;;4.68;;
75645;SDS011;64237;52.438;13.240;2023-10-09T14:38:24;11.55;;;4.88;;
75645;SDS011;64237;52.438;13.240;2023-10-09T14:40:52;9.75;;;4.13;;
75645;SDS011;64237;52.438;13.240;2023-10-09T14:43:22;9.95;;;4.72;;
75645;SDS011;64237;52.438;13.240;2023-10-09T14:46:02;9.52;;;4.75;;
75645;SDS011;64237;52.438;13.240;2023-10-09T14:48:29;11.43;;;5.05;;
75645;SDS011;64237;52.438;13.240;2023-10-09T14:51:10;9.57;;;5.20;;
75645;SDS011;64237;52.438;13.240;2023-10-09T14:53:38;9.20;;;4.82;;
75645;SDS011;64237;52.438;13.240;2023-10-09T14:56:14;9.35;;;4.93;;
75645;SDS011;64237;52.438;13.240;2023-10-09T14:58:50;7.75;;;4.38;;
75645;SDS011;64237;52.438;13.240;2023-10-09T15:03:44;10.82;;;4.60;;
75645;SDS011;64237;52.438;13.240;2023-10-09T15:06:12;8.77;;;4.43;;
75645;SDS011;64237;52.438;13.240;2023-10-09T15:08:45;9.52;;;4.70;;
75645;SDS011;64237;52.438;13.240;2023-10-09T15:11:11;8.95;;;4.07;;
75645;SDS011;64237;52.438;13.240;2023-10-09T15:13:40;8.70;;;4.68;;
75645;SDS011;64237;52.438;13.240;2023-10-09T15:16:05;8.77;;;4.38;;
75645;SDS011;64237;52.438;13.240;2023-10-09T15:18:31;9.25;;;4.65;;
75645;SDS011;64237;52.438;13.240;2023-10-09T15:21:03;9.30;;;4.40;;
75645;SDS011;64237;52.438;13.240;2023-10-09T15:23:31;9.55;;;4.57;;
75645;SDS011;64237;52.438;13.240;2023-10-09T15:26:09;12.10;;;4.75;;
75645;SDS011;64237;52.438;13.240;2023-10-09T15:28:35;9.75;;;4.88;;
75645;SDS011;64237;52.438;13.240;2023-10-09T15:31:07;9.93;;;4.85;;
75645;SDS011;64237;52.438;13.240;2023-10-09T15:33:45;10.02;;;5.00;;
75645;SDS011;64237;52.438;13.240;2023-10-09T15:36:13;9.23;;;5.18;;
75645;SDS011;64237;52.438;13.240;2023-10-09T15:38:42;24.25;;;11.07;;
75645;SDS011;64237;52.438;13.240;2023-10-09T15:41:07;12.15;;;6.20;;
75645;SDS011;64237;52.438;13.240;2023-10-09T15:43:39;10.40;;;5.60;;
75645;SDS011;64237;52.438;13.240;2023-10-09T15:46:12;12.00;;;5.85;;
75645;SDS011;64237;52.438;13.240;2023-10-09T15:48:49;11.48;;;6.32;;
75645;SDS011;64237;52.438;13.240;2023-10-09T15:51:16;10.48;;;5.15;;
75645;SDS011;64237;52.438;13.240;2023-10-09T15:53:42;12.85;;;6.10;;
75645;SDS011;64237;52.438;13.240;2023-10-09T15:56:12;10.52;;;5.22;;
75645;SDS011;64237;52.438;13.240;2023-10-09T15:58:41;11.73;;;5.82;;
75645;SDS011;64237;52.438;13.240;2023-10-09T16:01:26;10.35;;;4.88;;